Time;durP1;ratioP1;P1;durP2;ratioP2;P2;SDS_P1;SDS_P2;PMS_P1;PMS_P2;Temp;Humidity;BMP_temperature;BMP_pressure;BME280_temperature;BME280_humidity;BME280_pressure;Samples;Min_cycle;Max_cycle;Signal;HPM_P1;HPM_P2
2023/02/28 00:02:20;;;;;;;86.05;52.00;;;102.50;2227.20;;;;;;5092336;28;20032;-60
2023/02/28 00:04:52;;;;;;;96.63;53.35;;;102.40;2227.20;;;;;;5092298;28;20024;-60
2023/02/28 00:07:18;;;;;;;98.75;57.70;;;102.40;2227.20;;;;;;5092138;28;20024;-60
2023/02/28 00:09:44;;;;;;;89.80;52.65;;;102.50;2227.20;;;;;;5092103;28;20020;-60
2023/02/28 00:12:10;;;;;;;118.57;72.40;;;102.50;2227.20;;;;;;5092243;28;20020;-62
2023/02/28 00:14:39;;;;;;;118.00;63.03;;;102.70;2227.20;;;;;;5091527;28;20052;-63
2023/02/28 00:17:04;;;;;;;84.88;50.03;;;102.80;2227.20;;;;;;5092066;28;20336;-62
2023/02/28 00:19:30;;;;;;;87.97;51.20;;;102.90;2227.20;;;;;;5091703;28;20029;-60
2023/02/28 00:21:55;;;;;;;85.82;52.22;;;102.80;2227.20;;;;;;5091593;28;20028;-61
2023/02/28 00:24:21;;;;;;;88.95;53.15;;;102.70;2227.20;;;;;;5091757;28;20351;-60
2023/02/28 00:26:47;;;;;;;97.40;58.45;;;102.70;2227.20;;;;;;5091489;28;20097;-60
2023/02/28 00:29:12;;;;;;;95.45;57.38;;;102.60;2227.20;;;;;;5091527;28;20085;-60
2023/02/28 00:31:38;;;;;;;80.60;47.72;;;102.50;2227.20;;;;;;5091790;28;20058;-59
2023/02/28 00:34:04;;;;;;;76.85;47.45;;;102.70;2227.20;;;;;;5091740;28;20114;-62
2023/02/28 00:36:29;;;;;;;88.32;53.20;;;102.80;2227.20;;;;;;5091518;28;20458;-60
2023/02/28 00:38:55;;;;;;;92.50;54.92;;;102.80;2227.20;;;;;;5089301;28;20553;-62
2023/02/28 00:41:21;;;;;;;100.82;60.35;;;102.90;2227.20;;;;;;5077811;28;20024;-60
2023/02/28 00:43:47;;;;;;;104.40;65.85;;;102.80;2227.20;;;;;;5091072;28;20028;-60
2023/02/28 00:46:12;;;;;;;109.45;64.25;;;102.70;2227.20;;;;;;5082529;28;20048;-62
2023/02/28 00:48:38;;;;;;;106.65;62.08;;;102.80;2227.20;;;;;;5086544;28;20107;-61
2023/02/28 00:51:04;;;;;;;95.85;52.75;;;102.60;2227.20;;;;;;5091370;28;20024;-59
2023/02/28 00:53:32;;;;;;;102.72;54.88;;;102.60;2227.20;;;;;;5076883;28;20016;-59
2023/02/28 00:55:58;;;;;;;79.70;46.17;;;102.40;2227.20;;;;;;5089438;28;20043;-60
2023/02/28 00:58:24;;;;;;;87.15;49.70;;;102.40;2227.20;;;;;;5083257;28;20517;-60
2023/02/28 01:00:52;;;;;;;110.72;60.10;;;77.60;2227.20;;;;;;5084026;28;20051;-63
2023/02/28 01:03:19;;;;;;;106.70;62.65;;;77.50;2227.20;;;;;;5091116;28;20456;-61
2023/02/28 01:05:46;;;;;;;106.65;62.15;;;77.50;2227.20;;;;;;5090815;28;20020;-61
2023/02/28 01:08:13;;;;;;;124.55;72.07;;;77.70;2227.20;;;;;;5090926;28;20682;-61
2023/02/28 01:10:39;;;;;;;129.20;72.35;;;77.70;2227.20;;;;;;5090992;28;20172;-60
2023/02/28 01:13:05;;;;;;;113.30;64.95;;;102.40;2227.20;;;;;;5090879;28;20129;-60
2023/02/28 01:15:31;;;;;;;113.82;66.05;;;102.40;2227.20;;;;;;5090462;28;20530;-59
2023/02/28 01:17:58;;;;;;;126.13;70.22;;;77.60;2227.20;;;;;;5090826;28;20016;-60
2023/02/28 01:20:24;;;;;;;95.97;53.90;;;102.40;2227.20;;;;;;5090126;28;20036;-60
2023/02/28 01:22:49;;;;;;;88.15;48.08;;;102.40;2227.20;;;;;;5090602;28;20036;-60
2023/02/28 01:25:15;;;;;;;115.75;62.28;;;102.40;2227.20;;;;;;5090238;28;20028;-60
2023/02/28 01:27:41;;;;;;;139.48;81.93;;;77.60;2227.20;;;;;;5090710;28;20078;-60
2023/02/28 01:30:08;;;;;;;130.98;76.60;;;77.60;2227.20;;;;;;5090286;28;20064;-59
2023/02/28 01:32:35;;;;;;;140.15;78.72;;;77.50;2227.20;;;;;;5090352;28;20051;-60
2023/02/28 01:35:00;;;;;;;136.15;74.10;;;77.70;2227.20;;;;;;5090353;28;20020;-60
2023/02/28 01:37:27;;;;;;;112.43;64.50;;;77.60;2227.20;;;;;;5090157;28;20460;-60
2023/02/28 01:39:52;;;;;;;128.15;71.60;;;77.50;2227.20;;;;;;5090372;28;20028;-60
2023/02/28 01:42:18;;;;;;;124.28;69.82;;;77.60;2227.20;;;;;;5089886;28;20085;-60
2023/02/28 01:45:21;;;;;;;144.88;77.57;;;77.40;2227.20;;;;;;5090050;28;20027;-60
2023/02/28 01:47:50;;;;;;;145.05;86.28;;;77.40;2227.20;;;;;;5067545;28;20028;-61
2023/02/28 01:50:20;;;;;;;137.85;83.43;;;77.40;2227.20;;;;;;5089833;28;20024;-60
2023/02/28 01:52:48;;;;;;;119.20;69.15;;;77.40;2227.20;;;;;;5090235;28;20031;-60
2023/02/28 01:55:16;;;;;;;93.43;54.22;;;77.50;2227.20;;;;;;5087184;28;20017;-61
2023/02/28 01:57:48;;;;;;;75.57;47.03;;;77.50;2227.20;;;;;;5080108;28;20352;-60
2023/02/28 02:00:19;;;;;;;75.57;44.95;;;77.60;2227.20;;;;;;5089486;28;20474;-62
2023/02/28 02:02:48;;;;;;;72.78;46.40;;;77.60;2227.20;;;;;;5089890;28;20054;-60
2023/02/28 02:05:20;;;;;;;72.97;43.40;;;77.70;2227.20;;;;;;5089941;28;20024;-61
2023/02/28 02:07:49;;;;;;;73.60;42.80;;;102.50;2227.20;;;;;;5089875;28;20489;-60
2023/02/28 02:10:21;;;;;;;70.00;42.20;;;77.70;2227.20;;;;;;5089931;28;20028;-60
2023/02/28 02:12:53;;;;;;;81.78;46.97;;;77.50;2227.20;;;;;;5089246;28;20028;-60
2023/02/28 02:15:35;;;;;;;58.20;36.78;;;77.40;2227.20;;;;;;5089848;28;20059;-61
2023/02/28 02:18:29;;;;;;;55.22;33.25;;;77.50;2227.20;;;;;;5085963;28;20429;-60
2023/02/28 02:21:34;;;;;;;60.15;33.65;;;77.50;2227.20;;;;;;5001742;28;20508;-60
2023/02/28 02:24:09;;;;;;;67.57;36.45;;;77.60;2227.20;;;;;;5007444;28;20034;-64
2023/02/28 02:26:46;;;;;;;58.55;35.85;;;77.70;2227.20;;;;;;5007753;28;20034;-62
2023/02/28 02:29:35;;;;;;;56.17;33.83;;;77.60;2227.20;;;;;;4990846;28;20157;-59
2023/02/28 02:32:18;;;;;;;60.50;33.47;;;77.40;2227.20;;;;;;5007342;28;20165;-64
2023/02/28 02:34:48;;;;;;;57.72;34.38;;;77.30;2227.20;;;;;;5007569;28;20046;-61
2023/02/28 02:37:28;;;;;;;66.32;38.22;;;77.30;2227.20;;;;;;5007332;28;20872;-63
2023/02/28 02:39:54;;;;;;;62.55;34.65;;;77.30;2227.20;;;;;;5007375;28;20034;-60
2023/02/28 02:42:43;;;;;;;60.00;36.55;;;77.20;2227.20;;;;;;5007508;28;20053;-60
2023/02/28 02:45:37;;;;;;;65.38;34.67;;;77.30;2227.20;;;;;;4929798;29;20042;-60
2023/02/28 02:48:06;;;;;;;53.17;32.30;;;77.40;2227.20;;;;;;4930525;29;20478;-65
2023/02/28 02:50:43;;;;;;;57.97;37.83;;;77.50;2227.20;;;;;;4930104;29;20051;-60
2023/02/28 02:53:10;;;;;;;69.63;37.30;;;77.70;2227.20;;;;;;4930094;29;20028;-62
2023/02/28 02:55:41;;;;;;;66.88;38.92;;;102.40;2227.20;;;;;;4929678;29;20069;-66
2023/02/28 02:58:14;;;;;;;63.55;37.13;;;102.50;2227.20;;;;;;4981544;28;20034;-62
2023/02/28 03:00:48;;;;;;;61.88;39.00;;;102.70;2227.20;;;;;;5027034;28;20120;-61
2023/02/28 03:03:17;;;;;;;56.17;33.40;;;102.70;2227.20;;;;;;5026810;28;20049;-59
2023/02/28 03:05:50;;;;;;;55.58;34.30;;;102.60;2227.20;;;;;;5027144;28;20025;-60
2023/02/28 03:08:16;;;;;;;42.78;27.13;;;102.60;2227.20;;;;;;5026691;28;20060;-64
2023/02/28 03:10:46;;;;;;;50.38;31.63;;;102.70;2227.20;;;;;;5027335;28;20072;-62
2023/02/28 03:13:17;;;;;;;48.30;30.13;;;102.70;2227.20;;;;;;5027082;28;20049;-60
2023/02/28 03:16:05;;;;;;;58.42;33.75;;;102.80;2227.20;;;;;;5027376;28;20099;-61
2023/02/28 03:18:52;;;;;;;54.10;31.52;;;102.80;2227.20;;;;;;5026712;28;20045;-62
2023/02/28 03:21:40;;;;;;;54.10;31.13;;;102.80;2227.20;;;;;;5036032;28;20122;-60
2023/02/28 03:24:15;;;;;;;55.67;33.72;;;102.80;2227.20;;;;;;5088291;28;20111;-61
2023/02/28 03:26:50;;;;;;;59.45;35.55;;;102.80;2227.20;;;;;;5081866;28;20025;-60
2023/02/28 03:29:43;;;;;;;60.63;35.88;;;102.80;2227.20;;;;;;5092348;28;20020;-63
2023/02/28 03:32:33;;;;;;;63.88;37.53;;;102.80;2227.20;;;;;;5092390;28;20135;-61
2023/02/28 03:35:11;;;;;;;59.30;35.70;;;102.80;2227.20;;;;;;5092814;28;20111;-62
2023/02/28 03:37:42;;;;;;;53.88;32.55;;;102.80;2227.20;;;;;;5092343;28;20024;-65
2023/02/28 03:40:20;;;;;;;62.20;38.70;;;102.60;2227.20;;;;;;5092736;28;20024;-63
2023/02/28 03:42:50;;;;;;;70.20;43.22;;;102.80;2227.20;;;;;;5092473;28;20043;-60
2023/02/28 03:45:23;;;;;;;93.22;55.55;;;102.70;2227.20;;;;;;5092457;28;20381;-66
2023/02/28 03:48:02;;;;;;;88.90;48.75;;;102.80;2227.20;;;;;;5092753;28;20032;-61
2023/02/28 03:50:36;;;;;;;89.10;48.15;;;102.80;2227.20;;;;;;5092297;28;20028;-66
2023/02/28 03:53:12;;;;;;;89.45;49.75;;;102.70;2227.20;;;;;;5092768;28;20482;-62
2023/02/28 03:55:43;;;;;;;64.55;42.42;;;102.70;2227.20;;;;;;5092469;28;20027;-62
2023/02/28 03:58:22;;;;;;;69.88;45.45;;;102.60;2227.20;;;;;;5091711;28;20374;-63
2023/02/28 04:00:53;;;;;;;64.78;39.45;;;102.70;2227.20;;;;;;5092023;28;20044;-65
2023/02/28 04:03:19;;;;;;;40.90;27.52;;;102.80;2227.20;;;;;;5092419;28;20032;-61
2023/02/28 04:05:56;;;;;;;48.55;32.15;;;102.50;2227.20;;;;;;5091958;28;20024;-61
2023/02/28 04:08:22;;;;;;;44.88;28.08;;;102.50;2227.20;;;;;;5090597;28;20092;-64
2023/02/28 04:11:00;;;;;;;43.72;27.98;;;102.60;2227.20;;;;;;5091708;28;20020;-63
2023/02/28 04:13:26;;;;;;;44.00;29.13;;;102.50;2227.20;;;;;;5091945;28;20067;-63
2023/02/28 04:15:51;;;;;;;33.85;23.65;;;102.50;2227.20;;;;;;5091872;28;20054;-66
2023/02/28 04:18:17;;;;;;;37.08;23.42;;;102.40;2227.20;;;;;;5064956;28;20028;-65
2023/02/28 04:20:43;;;;;;;44.25;25.80;;;102.50;2227.20;;;;;;5092026;28;20039;-64
2023/02/28 04:23:09;;;;;;;39.47;23.70;;;102.60;2227.20;;;;;;5091847;28;20086;-60
2023/02/28 04:25:34;;;;;;;39.40;24.80;;;102.60;2227.20;;;;;;5091361;28;20020;-60
2023/02/28 04:28:00;;;;;;;45.05;28.63;;;102.70;2227.20;;;;;;5091930;28;20026;-60
2023/02/28 04:30:26;;;;;;;38.08;24.58;;;102.70;2227.20;;;;;;5091343;28;20374;-61
2023/02/28 04:32:51;;;;;;;36.40;25.52;;;102.70;2227.20;;;;;;5091927;28;20039;-60
2023/02/28 04:35:17;;;;;;;48.72;27.58;;;102.70;2227.20;;;;;;5091090;28;20456;-65
2023/02/28 04:37:43;;;;;;;37.50;23.73;;;102.60;2227.20;;;;;;5091424;28;20065;-63
2023/02/28 04:40:09;;;;;;;38.28;24.20;;;102.50;2227.20;;;;;;5091612;28;20028;-64
2023/02/28 04:42:35;;;;;;;40.17;25.33;;;102.40;2227.20;;;;;;5091136;28;20038;-61
2023/02/28 04:45:03;;;;;;;36.28;22.40;;;102.50;2227.20;;;;;;5091358;28;20020;-65
2023/02/28 04:47:29;;;;;;;47.60;26.23;;;102.50;2227.20;;;;;;5091442;28;20020;-64
2023/02/28 04:49:54;;;;;;;42.97;25.90;;;102.50;2227.20;;;;;;5091533;28;20474;-61
2023/02/28 04:52:20;;;;;;;37.65;24.42;;;102.60;2227.20;;;;;;5091114;28;20055;-62
2023/02/28 04:54:46;;;;;;;35.22;22.92;;;102.60;2227.20;;;;;;5090827;28;20032;-64
2023/02/28 04:57:11;;;;;;;44.72;27.13;;;102.50;2227.20;;;;;;5091058;28;20020;-60
2023/02/28 04:59:38;;;;;;;41.72;25.17;;;102.50;2227.20;;;;;;5091118;28;20024;-62
2023/02/28 05:02:06;;;;;;;40.50;25.63;;;77.70;2227.20;;;;;;5089289;28;20036;-63
2023/02/28 05:04:35;;;;;;;46.15;26.52;;;102.40;2227.20;;;;;;5091167;28;20020;-61
2023/02/28 05:07:01;;;;;;;41.60;25.45;;;102.50;2227.20;;;;;;5091519;28;20024;-64
2023/02/28 05:09:28;;;;;;;43.47;27.45;;;102.50;2227.20;;;;;;5090138;28;20016;-60
2023/02/28 05:11:54;;;;;;;43.55;28.38;;;102.50;2227.20;;;;;;5077788;28;20043;-63
2023/02/28 05:14:20;;;;;;;43.15;27.02;;;102.60;2227.20;;;;;;5090739;28;20107;-64
2023/02/28 05:16:45;;;;;;;46.28;26.38;;;102.50;2227.20;;;;;;5090512;28;20466;-65
2023/02/28 05:19:11;;;;;;;44.72;28.30;;;102.60;2227.20;;;;;;5091095;28;20055;-63
2023/02/28 05:21:40;;;;;;;48.58;29.30;;;102.70;2227.20;;;;;;5090919;28;20043;-65
2023/02/28 05:24:10;;;;;;;39.17;24.33;;;102.70;2227.20;;;;;;5090350;28;20399;-61
2023/02/28 05:26:38;;;;;;;40.40;25.30;;;102.50;2227.20;;;;;;5090904;28;20030;-62
2023/02/28 05:29:03;;;;;;;38.28;24.77;;;102.50;2227.20;;;;;;5090431;28;20021;-60
2023/02/28 05:31:29;;;;;;;49.17;30.13;;;102.50;2227.20;;;;;;5090369;28;20062;-60
2023/02/28 05:33:55;;;;;;;45.78;28.83;;;102.50;2227.20;;;;;;5090393;28;20047;-60
2023/02/28 05:36:21;;;;;;;51.22;30.80;;;102.60;2227.20;;;;;;5079482;28;20115;-61
2023/02/28 05:38:48;;;;;;;52.67;32.88;;;102.60;2227.20;;;;;;5068757;28;20017;-60
2023/02/28 05:41:14;;;;;;;59.90;35.20;;;102.50;2227.20;;;;;;5069182;28;20071;-64
2023/02/28 05:43:40;;;;;;;53.65;33.08;;;102.50;2227.20;;;;;;5085838;28;20035;-60
2023/02/28 05:46:08;;;;;;;60.50;31.67;;;102.60;2227.20;;;;;;5090419;28;20064;-59
2023/02/28 05:48:35;;;;;;;53.20;31.33;;;102.60;2227.20;;;;;;5089667;28;20492;-60
2023/02/28 05:51:02;;;;;;;49.00;30.42;;;102.60;2227.20;;;;;;5090803;28;20041;-61
2023/02/28 05:53:29;;;;;;;54.75;30.65;;;102.70;2227.20;;;;;;5089416;28;20466;-60
2023/02/28 05:55:55;;;;;;;52.67;29.42;;;102.50;2227.20;;;;;;5081533;28;20021;-60
2023/02/28 05:58:21;;;;;;;50.08;29.50;;;102.50;2227.20;;;;;;5076541;28;20463;-59
2023/02/28 06:00:47;;;;;;;61.50;33.30;;;102.60;2227.20;;;;;;5089846;28;20087;-60
2023/02/28 06:03:13;;;;;;;53.85;32.50;;;102.60;2227.20;;;;;;5089411;28;20120;-64
2023/02/28 06:05:39;;;;;;;59.65;36.28;;;102.70;2227.20;;;;;;5090010;28;20013;-60
2023/02/28 06:08:08;;;;;;;59.13;35.05;;;102.80;2227.20;;;;;;5089603;28;20060;-60
2023/02/28 06:10:37;;;;;;;58.85;34.47;;;102.70;2227.20;;;;;;5089852;28;20028;-61
2023/02/28 06:13:03;;;;;;;54.92;31.55;;;102.60;2227.20;;;;;;5089579;28;20028;-60
2023/02/28 06:15:30;;;;;;;54.30;31.95;;;102.70;2227.20;;;;;;5089637;28;20101;-61
2023/02/28 06:17:56;;;;;;;59.42;36.17;;;102.80;2227.20;;;;;;5089369;28;20470;-60
2023/02/28 06:20:23;;;;;;;65.82;37.25;;;102.80;2227.20;;;;;;5090048;28;20081;-61
2023/02/28 06:22:50;;;;;;;62.13;37.05;;;102.80;2227.20;;;;;;5089192;28;20097;-60
2023/02/28 06:25:17;;;;;;;69.45;40.28;;;102.80;2227.20;;;;;;5089727;28;20098;-60
2023/02/28 06:27:43;;;;;;;62.08;37.85;;;102.80;2227.20;;;;;;5089705;28;20036;-60
2023/02/28 06:30:10;;;;;;;66.43;41.00;;;102.70;2227.20;;;;;;5089531;28;20070;-60
2023/02/28 06:32:36;;;;;;;88.63;50.00;;;102.80;2227.20;;;;;;5089298;28;20438;-61
2023/02/28 06:35:02;;;;;;;90.28;54.90;;;102.90;2227.20;;;;;;5089717;28;20103;-62
2023/02/28 06:37:30;;;;;;;85.63;53.47;;;102.90;2227.20;;;;;;5089137;28;20129;-60
2023/02/28 06:39:55;;;;;;;79.88;49.92;;;102.90;2227.20;;;;;;5089610;28;20060;-60
2023/02/28 06:42:28;;;;;;;79.95;47.70;;;102.90;2227.20;;;;;;5089388;28;20411;-60
2023/02/28 06:44:55;;;;;;;72.90;41.58;;;102.80;2227.20;;;;;;5089391;28;20115;-61
2023/02/28 06:47:21;;;;;;;90.30;55.22;;;102.80;2227.20;;;;;;5089449;28;20112;-60
2023/02/28 06:49:46;;;;;;;73.78;43.80;;;102.90;2227.20;;;;;;5089521;28;20024;-61
2023/02/28 06:52:12;;;;;;;92.47;56.08;;;102.80;2227.20;;;;;;5089532;28;20020;-60
2023/02/28 06:54:38;;;;;;;88.90;49.03;;;102.90;2227.20;;;;;;5087259;28;20032;-61
2023/02/28 06:57:04;;;;;;;66.43;43.42;;;103.00;2227.20;;;;;;5089010;28;20521;-61
2023/02/28 06:59:30;;;;;;;69.70;41.63;;;102.90;2227.20;;;;;;5089082;28;20071;-62
2023/02/28 07:01:56;;;;;;;68.93;42.92;;;102.80;2227.20;;;;;;5076884;28;20494;-60
2023/02/28 07:04:22;;;;;;;66.97;41.08;;;103.00;2227.20;;;;;;5079509;28;20032;-59
2023/02/28 07:06:48;;;;;;;77.80;48.13;;;103.00;2227.20;;;;;;5093173;28;20028;-61
2023/02/28 07:09:13;;;;;;;70.30;44.28;;;102.90;2227.20;;;;;;5092921;28;20153;-61
2023/02/28 07:11:40;;;;;;;61.85;36.80;;;102.90;2227.20;;;;;;5093316;28;20028;-61
2023/02/28 07:14:06;;;;;;;58.08;35.55;;;102.80;2227.20;;;;;;5092940;28;20038;-60
2023/02/28 07:16:32;;;;;;;60.28;36.47;;;102.90;2227.20;;;;;;5092982;28;20119;-61
2023/02/28 07:18:58;;;;;;;62.03;33.10;;;102.40;2227.20;;;;;;5092643;28;20103;-66
2023/02/28 07:21:24;;;;;;;60.75;30.60;;;102.60;2227.20;;;;;;5092824;28;20111;-62
2023/02/28 07:23:51;;;;;;;53.78;33.92;;;102.80;2227.20;;;;;;5092576;28;20383;-62
2023/02/28 07:26:18;;;;;;;62.10;36.70;;;102.80;2227.20;;;;;;5092638;28;20058;-62
2023/02/28 07:28:46;;;;;;;55.83;32.72;;;102.80;2227.20;;;;;;5092640;28;20020;-61
2023/02/28 07:31:16;;;;;;;51.35;32.08;;;102.90;2227.20;;;;;;5092779;28;20082;-62
2023/02/28 07:33:43;;;;;;;50.83;32.08;;;103.00;2227.20;;;;;;5092941;28;20446;-68
2023/02/28 07:36:18;;;;;;;57.42;33.67;;;103.10;2227.20;;;;;;5092281;28;20019;-63
2023/02/28 07:38:47;;;;;;;57.92;35.78;;;103.10;2227.20;;;;;;5085442;28;20037;-62
2023/02/28 07:41:17;;;;;;;55.63;29.73;;;103.20;2227.20;;;;;;5072061;28;20516;-61
2023/02/28 07:43:44;;;;;;;51.88;28.52;;;103.20;2227.20;;;;;;5071949;28;20519;-62
2023/02/28 07:46:12;;;;;;;51.33;28.45;;;103.20;2227.20;;;;;;5072027;28;20021;-60
2023/02/28 07:48:38;;;;;;;42.90;27.75;;;103.30;2227.20;;;;;;5080881;28;20509;-60
2023/02/28 07:51:04;;;;;;;61.92;36.80;;;103.30;2227.20;;;;;;5087062;28;20115;-60
2023/02/28 07:53:30;;;;;;;46.08;28.70;;;103.30;2227.20;;;;;;5083055;28;20112;-67
2023/02/28 07:55:57;;;;;;;41.30;21.90;;;103.20;2227.20;;;;;;5079095;28;20131;-61
2023/02/28 07:58:23;;;;;;;39.58;23.15;;;103.00;2227.20;;;;;;5091683;28;20035;-61
2023/02/28 08:00:49;;;;;;;37.53;20.40;;;103.20;2227.20;;;;;;5091736;28;20031;-60
2023/02/28 08:03:16;;;;;;;39.70;21.65;;;128.00;2252.80;;;;;;5087370;28;20036;-69
2023/02/28 08:05:41;;;;;;;33.13;20.02;;;128.20;2252.80;;;;;;5081648;28;20073;-60
2023/02/28 08:08:08;;;;;;;41.55;21.98;;;128.40;2252.80;;;;;;5071284;28;20033;-60
2023/02/28 08:10:34;;;;;;;40.05;23.05;;;128.30;2252.80;;;;;;5070986;28;20017;-59
2023/02/28 08:13:00;;;;;;;38.45;21.88;;;128.50;2252.80;;;;;;5071545;28;20032;-65
2023/02/28 08:15:26;;;;;;;38.30;21.58;;;128.70;2252.80;;;;;;5076923;28;20384;-61
2023/02/28 08:17:52;;;;;;;37.28;19.30;;;153.60;2252.80;;;;;;5090060;28;20481;-60
2023/02/28 08:20:17;;;;;;;35.45;21.08;;;128.90;2252.80;;;;;;5087427;28;20032;-62
2023/02/28 08:22:43;;;;;;;40.63;20.58;;;153.60;2252.80;;;;;;5089382;28;20500;-69
2023/02/28 08:25:09;;;;;;;35.38;19.08;;;153.80;2252.80;;;;;;5087576;28;20032;-62
2023/02/28 08:27:35;;;;;;;34.78;19.77;;;153.70;2252.80;;;;;;5086838;28;20112;-62
2023/02/28 08:30:01;;;;;;;34.17;20.02;;;153.80;2252.80;;;;;;5087388;28;20032;-62
2023/02/28 08:32:27;;;;;;;34.67;20.38;;;154.10;2252.80;;;;;;5089928;28;20055;-67
2023/02/28 08:34:52;;;;;;;31.65;19.80;;;154.00;2252.80;;;;;;5084887;28;20025;-70
2023/02/28 08:37:18;;;;;;;33.70;18.48;;;153.70;2252.80;;;;;;5088278;28;20028;-65
2023/02/28 08:39:44;;;;;;;37.90;21.52;;;154.10;2252.80;;;;;;5091147;28;20039;-62
2023/02/28 08:42:10;;;;;;;30.95;18.73;;;154.50;2252.80;;;;;;5091198;28;20036;-65
2023/02/28 08:44:35;;;;;;;38.03;24.05;;;179.40;2252.80;;;;;;5091211;28;20020;-67
2023/02/28 08:47:01;;;;;;;32.67;19.02;;;179.40;2252.80;;;;;;5090425;28;20020;-61
2023/02/28 08:49:27;;;;;;;29.85;19.58;;;179.80;2252.80;;;;;;5077346;28;20025;-69
2023/02/28 08:51:53;;;;;;;32.58;19.35;;;180.00;2252.80;;;;;;5074759;28;20069;-65
2023/02/28 08:54:19;;;;;;;32.55;20.10;;;179.90;2252.80;;;;;;5092474;28;20028;-62
2023/02/28 08:56:49;;;;;;;36.35;22.98;;;179.80;2252.80;;;;;;5093521;28;20043;-63
2023/02/28 08:59:14;;;;;;;41.60;24.77;;;179.80;2252.80;;;;;;5094675;28;20028;-64
2023/02/28 09:01:41;;;;;;;36.60;23.10;;;179.70;2252.80;;;;;;5094197;28;20044;-69
2023/02/28 09:04:09;;;;;;;39.63;26.35;;;179.60;2252.80;;;;;;5094234;28;20032;-69
2023/02/28 09:06:35;;;;;;;46.42;26.02;;;179.50;2252.80;;;;;;5094381;28;20041;-66
2023/02/28 09:09:01;;;;;;;48.20;26.17;;;179.40;2252.80;;;;;;5094139;28;20111;-65
2023/02/28 09:11:28;;;;;;;41.40;22.15;;;179.40;2252.80;;;;;;5094121;28;20026;-62
2023/02/28 09:13:55;;;;;;;45.88;23.80;;;179.40;2252.80;;;;;;5094070;28;20458;-62
2023/02/28 09:16:21;;;;;;;44.55;27.15;;;179.30;2252.80;;;;;;5094341;28;20024;-66
2023/02/28 09:18:47;;;;;;;50.47;26.63;;;179.40;2252.80;;;;;;5093971;28;20052;-64
2023/02/28 09:21:16;;;;;;;42.45;26.90;;;179.50;2252.80;;;;;;5093502;28;20021;-68
2023/02/28 09:23:44;;;;;;;96.00;57.45;;;179.50;2252.80;;;;;;5093297;28;20024;-70
2023/02/28 09:26:22;;;;;;;108.65;66.13;;;179.30;2252.80;;;;;;5094110;28;20020;-65
2023/02/28 09:28:48;;;;;;;114.55;69.63;;;179.20;2252.80;;;;;;5093884;28;20024;-60
2023/02/28 09:31:16;;;;;;;103.95;58.60;;;154.50;2252.80;;;;;;5093686;28;20044;-64
2023/02/28 09:33:42;;;;;;;96.15;57.72;;;154.00;2252.80;;;;;;5093876;28;20035;-69
2023/02/28 09:36:08;;;;;;;97.03;55.95;;;154.20;2252.80;;;;;;5093658;28;20025;-67
2023/02/28 09:38:35;;;;;;;99.93;64.13;;;154.40;2252.80;;;;;;5094524;28;20370;-64
2023/02/28 09:41:04;;;;;;;105.00;65.32;;;154.20;2252.80;;;;;;5093987;28;20024;-70
2023/02/28 09:43:35;;;;;;;121.40;75.05;;;154.10;2252.80;;;;;;5093699;28;20490;-69
2023/02/28 09:46:23;;;;;;;127.10;79.28;;;153.90;2252.80;;;;;;5093914;28;20020;-69
2023/02/28 09:48:49;;;;;;;146.85;89.50;;;154.10;2252.80;;;;;;5092205;28;20017;-70
2023/02/28 09:51:56;;;;;;;137.18;86.68;;;153.60;2252.80;;;;;;5093481;28;20035;-60
2023/02/28 09:54:26;;;;;;;126.30;73.95;;;153.80;2252.80;;;;;;5011722;28;20399;-64
2023/02/28 09:57:10;;;;;;;113.45;66.95;;;153.90;2252.80;;;;;;5011472;28;20542;-61
2023/02/28 09:59:53;;;;;;;112.22;65.72;;;154.00;2252.80;;;;;;5011509;28;20034;-60
2023/02/28 10:02:40;;;;;;;104.40;61.80;;;154.30;2252.80;;;;;;5011325;28;20042;-61
2023/02/28 10:05:18;;;;;;;97.45;62.00;;;154.50;2252.80;;;;;;5011323;28;20029;-61
2023/02/28 10:07:44;;;;;;;99.72;64.95;;;179.40;2252.80;;;;;;5011319;28;20092;-62
2023/02/28 10:10:23;;;;;;;121.82;77.75;;;153.90;2252.80;;;;;;5011381;28;20038;-64
2023/02/28 10:12:53;;;;;;;119.18;74.47;;;154.30;2252.80;;;;;;5011413;28;20038;-70
2023/02/28 10:15:23;;;;;;;122.20;73.30;;;154.40;2252.80;;;;;;5011283;28;20022;-67
2023/02/28 10:17:56;;;;;;;114.28;67.25;;;154.20;2252.80;;;;;;5011128;28;20034;-70
2023/02/28 10:20:29;;;;;;;95.47;56.90;;;154.20;2252.80;;;;;;5011505;28;20025;-61
2023/02/28 10:23:19;;;;;;;95.28;55.42;;;153.70;2252.80;;;;;;5011036;28;20042;-60
2023/02/28 10:25:52;;;;;;;114.43;70.60;;;153.80;2252.80;;;;;;5073343;28;20469;-61
2023/02/28 10:31:21;;;;;;;108.57;60.08;;;128.90;2252.80;;;;;;5092837;28;20471;-70
2023/02/28 10:33:47;;;;;;;113.68;65.60;;;128.60;2252.80;;;;;;5092966;28;20036;-71
2023/02/28 10:36:19;;;;;;;121.55;69.45;;;153.60;2252.80;;;;;;5093175;28;20103;-66
2023/02/28 10:38:46;;;;;;;100.00;60.97;;;153.70;2252.80;;;;;;5093223;28;20489;-61
2023/02/28 10:41:28;;;;;;;91.25;56.78;;;153.70;2252.80;;;;;;5093030;28;20020;-68
2023/02/28 10:47:18;;;;;;;86.88;47.95;;;154.10;2252.80;;;;;;5093029;28;20027;-70
2023/02/28 10:49:52;;;;;;;89.55;53.90;;;153.60;2252.80;;;;;;5092819;28;20107;-68
2023/02/28 10:52:39;;;;;;;90.13;58.88;;;153.90;2252.80;;;;;;5092992;28;20031;-60
2023/02/28 10:55:19;;;;;;;89.15;56.15;;;154.40;2252.80;;;;;;5093056;28;20047;-61
2023/02/28 10:57:45;;;;;;;88.50;52.70;;;179.20;2252.80;;;;;;5092637;28;20032;-61
2023/02/28 11:00:21;;;;;;;63.80;42.08;;;154.50;2252.80;;;;;;5092784;28;20028;-60
2023/02/28 11:02:48;;;;;;;80.38;48.38;;;153.90;2252.80;;;;;;5091238;28;20458;-60
2023/02/28 11:05:35;;;;;;;91.75;54.97;;;154.30;2252.80;;;;;;5092902;28;20020;-69
2023/02/28 11:08:12;;;;;;;115.47;74.13;;;154.10;2252.80;;;;;;5092814;28;20116;-65
2023/02/28 11:10:38;;;;;;;96.10;57.63;;;154.30;2252.80;;;;;;5092723;28;20098;-69
2023/02/28 11:13:05;;;;;;;92.13;57.28;;;154.40;2252.80;;;;;;5092686;28;20051;-62
2023/02/28 11:18:55;;;;;;;87.00;55.42;;;128.80;2252.80;;;;;;5092613;28;20055;-68
2023/02/28 11:21:34;;;;;;;137.45;89.85;;;128.70;2252.80;;;;;;5092436;28;20028;-67
2023/02/28 11:24:12;;;;;;;110.40;72.25;;;153.70;2252.80;;;;;;5092753;28;20149;-61
2023/02/28 11:26:45;;;;;;;130.63;79.05;;;154.00;2252.80;;;;;;5092703;28;20530;-68
2023/02/28 11:29:20;;;;;;;93.45;58.83;;;154.50;2252.80;;;;;;5092679;28;20382;-65
2023/02/28 11:32:19;;;;;;;115.72;67.40;;;154.30;2252.80;;;;;;5092112;28;20451;-68
2023/02/28 11:34:45;;;;;;;86.18;53.33;;;154.30;2252.80;;;;;;5092642;28;20043;-63
2023/02/28 11:37:17;;;;;;;102.53;65.30;;;154.40;2252.80;;;;;;5092663;28;20065;-61
2023/02/28 11:39:45;;;;;;;107.68;65.80;;;179.20;2252.80;;;;;;5092684;28;20419;-59
2023/02/28 11:42:19;;;;;;;81.95;52.70;;;154.20;2252.80;;;;;;5092194;28;20039;-64
2023/02/28 11:45:02;;;;;;;90.63;57.40;;;153.90;2252.80;;;;;;5092525;28;20020;-61
2023/02/28 11:47:42;;;;;;;84.88;53.03;;;154.00;2252.80;;;;;;5095811;28;20450;-62
2023/02/28 11:50:16;;;;;;;81.93;51.15;;;154.10;2252.80;;;;;;5095990;28;20055;-68
2023/02/28 11:52:55;;;;;;;74.18;45.30;;;154.10;2252.80;;;;;;5095989;28;20036;-67
2023/02/28 11:55:26;;;;;;;73.10;43.65;;;154.00;2252.80;;;;;;5096011;28;20085;-65
2023/02/28 11:58:25;;;;;;;78.38;48.28;;;128.90;2252.80;;;;;;5095628;28;20028;-68
2023/02/28 12:01:02;;;;;;;87.05;56.75;;;128.80;2252.80;;;;;;5095527;28;20047;-61
2023/02/28 12:03:56;;;;;;;71.70;40.42;;;128.90;2252.80;;;;;;5095713;28;20040;-68
2023/02/28 12:06:27;;;;;;;81.70;50.22;;;128.70;2252.80;;;;;;5094193;28;20016;-67
2023/02/28 12:08:59;;;;;;;78.65;47.75;;;128.90;2252.80;;;;;;5095363;28;20032;-60
2023/02/28 12:11:52;;;;;;;75.03;45.88;;;153.70;2252.80;;;;;;5095275;28;20039;-65
2023/02/28 12:17:52;;;;;;;83.93;52.85;;;153.60;2252.80;;;;;;5095345;28;20070;-63
2023/02/28 12:20:26;;;;;;;140.40;94.97;;;153.80;2252.80;;;;;;5095500;28;20028;-64
2023/02/28 12:23:11;;;;;;;116.38;82.88;;;153.90;2252.80;;;;;;5095489;28;20040;-62
2023/02/28 12:25:36;;;;;;;108.50;68.60;;;154.00;2252.80;;;;;;5095122;28;20031;-70
2023/02/28 12:28:03;;;;;;;87.93;58.13;;;153.90;2252.80;;;;;;5095316;28;20032;-61